sensor_id;sensor_type;location;lat;lon;timestamp;P1;durP1;ratioP1;P2;durP2;ratioP2
44270;SDS011;29963;44.594;11.368;2023-03-14T00:01:10;19.30;;;17.15;;
44270;SDS011;29963;44.594;11.368;2023-03-14T00:03:38;25.27;;;17.88;;
44270;SDS011;29963;44.594;11.368;2023-03-14T00:06:04;24.02;;;18.52;;
44270;SDS011;29963;44.594;11.368;2023-03-14T00:08:30;22.38;;;19.83;;
44270;SDS011;29963;44.594;11.368;2023-03-14T00:10:56;26.02;;;18.00;;
44270;SDS011;29963;44.594;11.368;2023-03-14T00:13:23;21.90;;;18.05;;
44270;SDS011;29963;44.594;11.368;2023-03-14T00:15:48;23.33;;;17.77;;
44270;SDS011;29963;44.594;11.368;2023-03-14T00:18:14;21.85;;;16.92;;
44270;SDS011;29963;44.594;11.368;2023-03-14T00:20:40;24.85;;;17.58;;
44270;SDS011;29963;44.594;11.368;2023-03-14T00:23:06;21.60;;;17.23;;
44270;SDS011;29963;44.594;11.368;2023-03-14T00:25:31;19.88;;;17.88;;
44270;SDS011;29963;44.594;11.368;2023-03-14T00:27:57;21.40;;;16.58;;
44270;SDS011;29963;44.594;11.368;2023-03-14T00:30:22;21.98;;;16.85;;
44270;SDS011;29963;44.594;11.368;2023-03-14T00:32:48;25.45;;;18.85;;
44270;SDS011;29963;44.594;11.368;2023-03-14T00:35:14;18.92;;;17.02;;
44270;SDS011;29963;44.594;11.368;2023-03-14T00:37:40;20.08;;;18.00;;
44270;SDS011;29963;44.594;11.368;2023-03-14T00:40:06;22.52;;;16.83;;
44270;SDS011;29963;44.594;11.368;2023-03-14T00:42:33;23.02;;;19.27;;
44270;SDS011;29963;44.594;11.368;2023-03-14T00:44:59;21.23;;;18.13;;
44270;SDS011;29963;44.594;11.368;2023-03-14T00:47:25;23.42;;;19.05;;
44270;SDS011;29963;44.594;11.368;2023-03-14T00:49:50;22.77;;;17.55;;
44270;SDS011;29963;44.594;11.368;2023-03-14T00:52:16;25.08;;;18.60;;
44270;SDS011;29963;44.594;11.368;2023-03-14T00:54:41;29.67;;;19.05;;
44270;SDS011;29963;44.594;11.368;2023-03-14T00:57:07;23.30;;;18.40;;
44270;SDS011;29963;44.594;11.368;2023-03-14T00:59:33;19.95;;;17.95;;
44270;SDS011;29963;44.594;11.368;2023-03-14T01:01:58;22.88;;;18.27;;
44270;SDS011;29963;44.594;11.368;2023-03-14T01:04:24;21.77;;;18.92;;
44270;SDS011;29963;44.594;11.368;2023-03-14T01:06:50;22.55;;;18.98;;
44270;SDS011;29963;44.594;11.368;2023-03-14T01:09:15;23.67;;;19.85;;
44270;SDS011;29963;44.594;11.368;2023-03-14T01:11:43;22.52;;;18.25;;
44270;SDS011;29963;44.594;11.368;2023-03-14T01:14:11;22.52;;;16.55;;
44270;SDS011;29963;44.594;11.368;2023-03-14T01:16:37;20.70;;;13.38;;
44270;SDS011;29963;44.594;11.368;2023-03-14T01:19:03;13.90;;;12.10;;
44270;SDS011;29963;44.594;11.368;2023-03-14T01:21:30;10.48;;;7.53;;
44270;SDS011;29963;44.594;11.368;2023-03-14T01:23:58;9.30;;;4.85;;
44270;SDS011;29963;44.594;11.368;2023-03-14T01:26:25;5.43;;;3.78;;
44270;SDS011;29963;44.594;11.368;2023-03-14T01:28:54;5.25;;;2.72;;
44270;SDS011;29963;44.594;11.368;2023-03-14T01:31:20;6.13;;;2.67;;
44270;SDS011;29963;44.594;11.368;2023-03-14T01:33:46;4.40;;;2.45;;
44270;SDS011;29963;44.594;11.368;2023-03-14T01:36:12;5.57;;;2.72;;
44270;SDS011;29963;44.594;11.368;2023-03-14T01:38:38;4.45;;;1.92;;
44270;SDS011;29963;44.594;11.368;2023-03-14T01:41:05;5.28;;;2.45;;
44270;SDS011;29963;44.594;11.368;2023-03-14T01:43:31;4.28;;;2.22;;
44270;SDS011;29963;44.594;11.368;2023-03-14T01:54:19;7.25;;;2.25;;
44270;SDS011;29963;44.594;11.368;2023-03-14T01:56:53;9.40;;;2.42;;
44270;SDS011;29963;44.594;11.368;2023-03-14T01:59:26;9.23;;;2.47;;
44270;SDS011;29963;44.594;11.368;2023-03-14T02:01:54;4.38;;;1.95;;
44270;SDS011;29963;44.594;11.368;2023-03-14T02:04:20;4.38;;;1.95;;
44270;SDS011;29963;44.594;11.368;2023-03-14T02:06:51;7.22;;;2.28;;
44270;SDS011;29963;44.594;11.368;2023-03-14T02:09:22;4.10;;;1.90;;
44270;SDS011;29963;44.594;11.368;2023-03-14T02:11:48;6.88;;;2.30;;
44270;SDS011;29963;44.594;11.368;2023-03-14T02:14:29;9.35;;;2.47;;
44270;SDS011;29963;44.594;11.368;2023-03-14T02:16:57;5.95;;;2.13;;
44270;SDS011;29963;44.594;11.368;2023-03-14T02:19:30;7.03;;;2.55;;
44270;SDS011;29963;44.594;11.368;2023-03-14T02:22:02;7.03;;;2.28;;
44270;SDS011;29963;44.594;11.368;2023-03-14T02:27:40;8.05;;;1.83;;
44270;SDS011;29963;44.594;11.368;2023-03-14T02:32:37;5.47;;;2.25;;
44270;SDS011;29963;44.594;11.368;2023-03-14T02:35:15;5.85;;;2.03;;
44270;SDS011;29963;44.594;11.368;2023-03-14T02:37:48;6.35;;;2.33;;
44270;SDS011;29963;44.594;11.368;2023-03-14T02:40:20;3.58;;;1.60;;
44270;SDS011;29963;44.594;11.368;2023-03-14T02:42:46;6.50;;;1.90;;
44270;SDS011;29963;44.594;11.368;2023-03-14T02:47:44;6.82;;;2.20;;
44270;SDS011;29963;44.594;11.368;2023-03-14T02:50:18;5.72;;;1.73;;
44270;SDS011;29963;44.594;11.368;2023-03-14T02:52:47;7.15;;;1.83;;
44270;SDS011;29963;44.594;11.368;2023-03-14T02:55:12;8.30;;;2.33;;
44270;SDS011;29963;44.594;11.368;2023-03-14T02:57:38;11.15;;;2.03;;
44270;SDS011;29963;44.594;11.368;2023-03-14T03:00:04;10.60;;;2.80;;
44270;SDS011;29963;44.594;11.368;2023-03-14T03:02:30;9.25;;;2.30;;
44270;SDS011;29963;44.594;11.368;2023-03-14T03:04:56;3.45;;;1.63;;
44270;SDS011;29963;44.594;11.368;2023-03-14T03:07:24;4.55;;;1.52;;
44270;SDS011;29963;44.594;11.368;2023-03-14T03:09:50;4.07;;;1.55;;
44270;SDS011;29963;44.594;11.368;2023-03-14T03:12:16;8.63;;;2.33;;
44270;SDS011;29963;44.594;11.368;2023-03-14T03:14:41;5.72;;;1.83;;
44270;SDS011;29963;44.594;11.368;2023-03-14T03:17:10;4.38;;;1.70;;
44270;SDS011;29963;44.594;11.368;2023-03-14T03:19:35;6.90;;;2.05;;
44270;SDS011;29963;44.594;11.368;2023-03-14T03:22:01;6.22;;;2.25;;
44270;SDS011;29963;44.594;11.368;2023-03-14T03:24:26;4.82;;;1.83;;
44270;SDS011;29963;44.594;11.368;2023-03-14T03:26:52;5.07;;;2.42;;
44270;SDS011;29963;44.594;11.368;2023-03-14T03:29:18;6.47;;;1.92;;
44270;SDS011;29963;44.594;11.368;2023-03-14T03:31:43;3.67;;;1.90;;
44270;SDS011;29963;44.594;11.368;2023-03-14T03:34:10;3.78;;;1.60;;
44270;SDS011;29963;44.594;11.368;2023-03-14T03:36:37;6.88;;;1.95;;
44270;SDS011;29963;44.594;11.368;2023-03-14T03:39:03;2.97;;;1.50;;
44270;SDS011;29963;44.594;11.368;2023-03-14T03:41:29;6.97;;;2.05;;
44270;SDS011;29963;44.594;11.368;2023-03-14T03:43:55;2.60;;;1.60;;
44270;SDS011;29963;44.594;11.368;2023-03-14T03:46:21;4.70;;;1.85;;
44270;SDS011;29963;44.594;11.368;2023-03-14T03:48:47;7.85;;;1.88;;
44270;SDS011;29963;44.594;11.368;2023-03-14T03:51:15;3.47;;;1.88;;
44270;SDS011;29963;44.594;11.368;2023-03-14T03:53:41;6.68;;;1.92;;
44270;SDS011;29963;44.594;11.368;2023-03-14T03:56:08;5.60;;;1.90;;
44270;SDS011;29963;44.594;11.368;2023-03-14T03:58:34;8.70;;;2.20;;
44270;SDS011;29963;44.594;11.368;2023-03-14T04:01:00;4.22;;;1.88;;
44270;SDS011;29963;44.594;11.368;2023-03-14T04:03:25;6.75;;;2.45;;
44270;SDS011;29963;44.594;11.368;2023-03-14T04:05:58;3.92;;;1.48;;
44270;SDS011;29963;44.594;11.368;2023-03-14T04:08:25;4.95;;;1.60;;
44270;SDS011;29963;44.594;11.368;2023-03-14T04:10:53;6.60;;;1.63;;
44270;SDS011;29963;44.594;11.368;2023-03-14T04:13:23;10.65;;;2.22;;
44270;SDS011;29963;44.594;11.368;2023-03-14T04:15:49;2.58;;;1.73;;
44270;SDS011;29963;44.594;11.368;2023-03-14T04:18:15;8.77;;;1.52;;
44270;SDS011;29963;44.594;11.368;2023-03-14T04:20:40;7.18;;;1.80;;
44270;SDS011;29963;44.594;11.368;2023-03-14T04:23:06;3.45;;;1.67;;
44270;SDS011;29963;44.594;11.368;2023-03-14T04:25:32;6.85;;;2.10;;
44270;SDS011;29963;44.594;11.368;2023-03-14T04:27:57;7.53;;;2.00;;
44270;SDS011;29963;44.594;11.368;2023-03-14T04:30:23;5.00;;;1.77;;
44270;SDS011;29963;44.594;11.368;2023-03-14T04:32:48;5.53;;;1.55;;
44270;SDS011;29963;44.594;11.368;2023-03-14T04:35:14;5.13;;;1.98;;
44270;SDS011;29963;44.594;11.368;2023-03-14T04:37:39;6.43;;;1.73;;
44270;SDS011;29963;44.594;11.368;2023-03-14T04:40:07;13.10;;;2.88;;
44270;SDS011;29963;44.594;11.368;2023-03-14T04:42:33;8.48;;;1.63;;
44270;SDS011;29963;44.594;11.368;2023-03-14T04:45:02;6.20;;;1.55;;
44270;SDS011;29963;44.594;11.368;2023-03-14T04:47:28;10.25;;;2.70;;
44270;SDS011;29963;44.594;11.368;2023-03-14T04:49:53;10.23;;;2.20;;
44270;SDS011;29963;44.594;11.368;2023-03-14T04:52:19;5.93;;;2.08;;
44270;SDS011;29963;44.594;11.368;2023-03-14T04:54:45;8.45;;;2.13;;
44270;SDS011;29963;44.594;11.368;2023-03-14T04:57:10;6.50;;;2.00;;
44270;SDS011;29963;44.594;11.368;2023-03-14T04:59:36;5.95;;;1.70;;
44270;SDS011;29963;44.594;11.368;2023-03-14T05:02:01;6.03;;;2.20;;
44270;SDS011;29963;44.594;11.368;2023-03-14T05:04:27;4.03;;;1.55;;
44270;SDS011;29963;44.594;11.368;2023-03-14T05:06:54;3.63;;;1.70;;
44270;SDS011;29963;44.594;11.368;2023-03-14T05:09:19;4.95;;;1.60;;
44270;SDS011;29963;44.594;11.368;2023-03-14T05:11:45;2.63;;;1.50;;
44270;SDS011;29963;44.594;11.368;2023-03-14T05:14:11;4.43;;;2.50;;
44270;SDS011;29963;44.594;11.368;2023-03-14T05:16:36;3.40;;;1.67;;
44270;SDS011;29963;44.594;11.368;2023-03-14T05:19:02;7.22;;;2.10;;
44270;SDS011;29963;44.594;11.368;2023-03-14T05:21:27;6.38;;;2.38;;
44270;SDS011;29963;44.594;11.368;2023-03-14T05:23:53;3.22;;;1.67;;
44270;SDS011;29963;44.594;11.368;2023-03-14T05:26:19;6.53;;;2.08;;
44270;SDS011;29963;44.594;11.368;2023-03-14T05:28:44;4.28;;;1.77;;
44270;SDS011;29963;44.594;11.368;2023-03-14T05:31:10;8.00;;;2.25;;
44270;SDS011;29963;44.594;11.368;2023-03-14T05:33:35;7.50;;;1.77;;
44270;SDS011;29963;44.594;11.368;2023-03-14T05:36:01;5.45;;;1.35;;
44270;SDS011;29963;44.594;11.368;2023-03-14T05:38:27;3.40;;;1.42;;
44270;SDS011;29963;44.594;11.368;2023-03-14T05:40:53;4.57;;;1.88;;
44270;SDS011;29963;44.594;11.368;2023-03-14T05:43:18;6.43;;;2.25;;
44270;SDS011;29963;44.594;11.368;2023-03-14T05:45:44;4.20;;;1.58;;
44270;SDS011;29963;44.594;11.368;2023-03-14T05:48:10;4.57;;;1.60;;
44270;SDS011;29963;44.594;11.368;2023-03-14T05:50:35;4.43;;;1.88;;
44270;SDS011;29963;44.594;11.368;2023-03-14T05:53:01;4.60;;;1.70;;
44270;SDS011;29963;44.594;11.368;2023-03-14T05:55:27;9.98;;;2.22;;
44270;SDS011;29963;44.594;11.368;2023-03-14T05:57:53;3.25;;;2.20;;
44270;SDS011;29963;44.594;11.368;2023-03-14T06:00:19;4.57;;;2.05;;
44270;SDS011;29963;44.594;11.368;2023-03-14T06:02:45;3.30;;;2.05;;
44270;SDS011;29963;44.594;11.368;2023-03-14T06:05:14;4.53;;;1.70;;
44270;SDS011;29963;44.594;11.368;2023-03-14T06:07:39;5.78;;;2.10;;
44270;SDS011;29963;44.594;11.368;2023-03-14T06:10:05;5.35;;;2.15;;
44270;SDS011;29963;44.594;11.368;2023-03-14T06:12:32;8.82;;;2.42;;
44270;SDS011;29963;44.594;11.368;2023-03-14T06:15:00;4.40;;;2.17;;
44270;SDS011;29963;44.594;11.368;2023-03-14T06:17:26;7.07;;;2.53;;
44270;SDS011;29963;44.594;11.368;2023-03-14T06:19:51;8.15;;;2.25;;
44270;SDS011;29963;44.594;11.368;2023-03-14T06:22:17;5.88;;;2.30;;
44270;SDS011;29963;44.594;11.368;2023-03-14T06:24:44;6.13;;;1.60;;
44270;SDS011;29963;44.594;11.368;2023-03-14T06:27:09;4.88;;;2.58;;
44270;SDS011;29963;44.594;11.368;2023-03-14T06:29:35;3.78;;;2.38;;
44270;SDS011;29963;44.594;11.368;2023-03-14T06:32:00;6.38;;;2.35;;
44270;SDS011;29963;44.594;11.368;2023-03-14T06:34:26;7.10;;;2.88;;
44270;SDS011;29963;44.594;11.368;2023-03-14T06:36:52;8.52;;;2.88;;
44270;SDS011;29963;44.594;11.368;2023-03-14T06:39:17;11.07;;;2.50;;
44270;SDS011;29963;44.594;11.368;2023-03-14T06:41:43;2.83;;;1.40;;
44270;SDS011;29963;44.594;11.368;2023-03-14T06:44:08;6.63;;;1.73;;
44270;SDS011;29963;44.594;11.368;2023-03-14T06:46:34;8.50;;;2.22;;
44270;SDS011;29963;44.594;11.368;2023-03-14T06:48:59;12.02;;;3.50;;
44270;SDS011;29963;44.594;11.368;2023-03-14T06:51:25;8.15;;;2.53;;
44270;SDS011;29963;44.594;11.368;2023-03-14T06:53:50;13.77;;;2.97;;
44270;SDS011;29963;44.594;11.368;2023-03-14T06:56:16;4.00;;;1.63;;
44270;SDS011;29963;44.594;11.368;2023-03-14T06:58:42;13.18;;;2.28;;
44270;SDS011;29963;44.594;11.368;2023-03-14T07:01:14;3.55;;;1.55;;
44270;SDS011;29963;44.594;11.368;2023-03-14T07:03:45;6.60;;;1.92;;
44270;SDS011;29963;44.594;11.368;2023-03-14T07:06:11;9.70;;;2.17;;
44270;SDS011;29963;44.594;11.368;2023-03-14T07:08:37;7.07;;;2.28;;
44270;SDS011;29963;44.594;11.368;2023-03-14T07:11:04;9.52;;;2.70;;
44270;SDS011;29963;44.594;11.368;2023-03-14T07:13:30;4.35;;;1.88;;
44270;SDS011;29963;44.594;11.368;2023-03-14T07:15:55;4.82;;;1.65;;
44270;SDS011;29963;44.594;11.368;2023-03-14T07:18:21;4.00;;;1.55;;
44270;SDS011;29963;44.594;11.368;2023-03-14T07:20:47;10.20;;;2.53;;
44270;SDS011;29963;44.594;11.368;2023-03-14T07:23:12;8.38;;;3.05;;
44270;SDS011;29963;44.594;11.368;2023-03-14T07:25:38;12.13;;;2.72;;
44270;SDS011;29963;44.594;11.368;2023-03-14T07:28:04;6.50;;;2.10;;
44270;SDS011;29963;44.594;11.368;2023-03-14T07:30:32;4.07;;;1.65;;
44270;SDS011;29963;44.594;11.368;2023-03-14T07:32:58;9.55;;;2.22;;
44270;SDS011;29963;44.594;11.368;2023-03-14T07:35:23;8.45;;;1.92;;
44270;SDS011;29963;44.594;11.368;2023-03-14T07:37:49;8.55;;;1.75;;
44270;SDS011;29963;44.594;11.368;2023-03-14T07:40:15;9.20;;;2.42;;
44270;SDS011;29963;44.594;11.368;2023-03-14T07:42:41;7.68;;;1.88;;
44270;SDS011;29963;44.594;11.368;2023-03-14T07:45:08;5.97;;;1.95;;
44270;SDS011;29963;44.594;11.368;2023-03-14T07:47:34;8.13;;;2.33;;
44270;SDS011;29963;44.594;11.368;2023-03-14T07:50:00;6.18;;;2.22;;
44270;SDS011;29963;44.594;11.368;2023-03-14T07:52:27;13.65;;;3.00;;
44270;SDS011;29963;44.594;11.368;2023-03-14T07:54:52;5.18;;;1.75;;
44270;SDS011;29963;44.594;11.368;2023-03-14T07:57:18;6.95;;;2.45;;
44270;SDS011;29963;44.594;11.368;2023-03-14T07:59:44;4.97;;;2.50;;
44270;SDS011;29963;44.594;11.368;2023-03-14T08:02:12;3.58;;;1.92;;
44270;SDS011;29963;44.594;11.368;2023-03-14T08:04:38;7.63;;;2.60;;
44270;SDS011;29963;44.594;11.368;2023-03-14T08:07:05;7.57;;;2.45;;
44270;SDS011;29963;44.594;11.368;2023-03-14T08:09:30;8.65;;;2.13;;
44270;SDS011;29963;44.594;11.368;2023-03-14T08:11:56;4.82;;;2.45;;
44270;SDS011;29963;44.594;11.368;2023-03-14T08:14:22;7.68;;;2.45;;
44270;SDS011;29963;44.594;11.368;2023-03-14T08:16:50;5.65;;;2.47;;
44270;SDS011;29963;44.594;11.368;2023-03-14T08:19:16;5.05;;;2.35;;
44270;SDS011;29963;44.594;11.368;2023-03-14T08:21:42;8.32;;;1.95;;
44270;SDS011;29963;44.594;11.368;2023-03-14T08:24:07;4.55;;;1.98;;
44270;SDS011;29963;44.594;11.368;2023-03-14T08:26:33;7.30;;;2.63;;
44270;SDS011;29963;44.594;11.368;2023-03-14T08:28:59;7.85;;;2.92;;
44270;SDS011;29963;44.594;11.368;2023-03-14T08:31:25;5.63;;;1.88;;
44270;SDS011;29963;44.594;11.368;2023-03-14T08:33:50;6.70;;;2.20;;
44270;SDS011;29963;44.594;11.368;2023-03-14T08:36:17;6.65;;;2.08;;
44270;SDS011;29963;44.594;11.368;2023-03-14T08:38:43;5.60;;;1.80;;
44270;SDS011;29963;44.594;11.368;2023-03-14T08:41:09;7.70;;;1.88;;
44270;SDS011;29963;44.594;11.368;2023-03-14T08:43:35;1.95;;;1.35;;
44270;SDS011;29963;44.594;11.368;2023-03-14T08:46:01;5.97;;;2.38;;
44270;SDS011;29963;44.594;11.368;2023-03-14T08:48:27;5.82;;;2.28;;
44270;SDS011;29963;44.594;11.368;2023-03-14T08:50:56;12.57;;;2.20;;
44270;SDS011;29963;44.594;11.368;2023-03-14T08:53:28;4.15;;;1.73;;
44270;SDS011;29963;44.594;11.368;2023-03-14T08:55:54;10.68;;;2.70;;
44270;SDS011;29963;44.594;11.368;2023-03-14T08:58:20;5.35;;;1.90;;
44270;SDS011;29963;44.594;11.368;2023-03-14T09:00:47;7.20;;;2.13;;
44270;SDS011;29963;44.594;11.368;2023-03-14T09:03:13;5.20;;;2.20;;
44270;SDS011;29963;44.594;11.368;2023-03-14T09:05:39;6.82;;;1.77;;
44270;SDS011;29963;44.594;11.368;2023-03-14T09:08:05;12.50;;;2.58;;
44270;SDS011;29963;44.594;11.368;2023-03-14T09:10:30;7.68;;;1.90;;
44270;SDS011;29963;44.594;11.368;2023-03-14T09:12:56;9.88;;;2.38;;
44270;SDS011;29963;44.594;11.368;2023-03-14T09:15:26;5.28;;;2.17;;
44270;SDS011;29963;44.594;11.368;2023-03-14T09:17:51;7.28;;;2.42;;
44270;SDS011;29963;44.594;11.368;2023-03-14T09:20:17;7.03;;;2.38;;
44270;SDS011;29963;44.594;11.368;2023-03-14T09:22:42;5.50;;;2.22;;
44270;SDS011;29963;44.594;11.368;2023-03-14T09:25:08;8.75;;;2.55;;
44270;SDS011;29963;44.594;11.368;2023-03-14T09:27:35;3.80;;;1.92;;
44270;SDS011;29963;44.594;11.368;2023-03-14T09:30:00;4.65;;;2.05;;
44270;SDS011;29963;44.594;11.368;2023-03-14T09:32:26;5.80;;;2.30;;
44270;SDS011;29963;44.594;11.368;2023-03-14T09:34:51;13.52;;;4.10;;
44270;SDS011;29963;44.594;11.368;2023-03-14T09:37:17;8.55;;;2.28;;
44270;SDS011;29963;44.594;11.368;2023-03-14T09:39:44;5.10;;;2.15;;
44270;SDS011;29963;44.594;11.368;2023-03-14T09:42:13;4.57;;;1.67;;
44270;SDS011;29963;44.594;11.368;2023-03-14T09:44:45;11.45;;;2.47;;
44270;SDS011;29963;44.594;11.368;2023-03-14T09:47:22;5.70;;;2.08;;
44270;SDS011;29963;44.594;11.368;2023-03-14T09:49:49;4.70;;;2.05;;
44270;SDS011;29963;44.594;11.368;2023-03-14T09:52:16;6.00;;;2.15;;
44270;SDS011;29963;44.594;11.368;2023-03-14T09:54:59;5.32;;;2.20;;
44270;SDS011;29963;44.594;11.368;2023-03-14T09:57:47;2.50;;;1.27;;
44270;SDS011;29963;44.594;11.368;2023-03-14T10:02:51;9.25;;;2.33;;
44270;SDS011;29963;44.594;11.368;2023-03-14T10:05:20;5.70;;;1.63;;
44270;SDS011;29963;44.594;11.368;2023-03-14T10:07:48;4.47;;;1.67;;
44270;SDS011;29963;44.594;11.368;2023-03-14T10:10:15;4.72;;;1.27;;
44270;SDS011;29963;44.594;11.368;2023-03-14T10:12:44;4.55;;;1.75;;
44270;SDS011;29963;44.594;11.368;2023-03-14T10:15:12;3.53;;;1.27;;
44270;SDS011;29963;44.594;11.368;2023-03-14T10:17:44;2.50;;;1.08;;
44270;SDS011;29963;44.594;11.368;2023-03-14T10:25:42;4.80;;;1.30;;
44270;SDS011;29963;44.594;11.368;2023-03-14T10:28:26;2.63;;;1.70;;
44270;SDS011;29963;44.594;11.368;2023-03-14T10:30:53;3.55;;;1.52;;
44270;SDS011;29963;44.594;11.368;2023-03-14T10:33:30;4.65;;;1.60;;
44270;SDS011;29963;44.594;11.368;2023-03-14T10:35:58;1.38;;;1.00;;
44270;SDS011;29963;44.594;11.368;2023-03-14T10:38:40;1.80;;;1.10;;
44270;SDS011;29963;44.594;11.368;2023-03-14T10:41:16;1.80;;;1.30;;
44270;SDS011;29963;44.594;11.368;2023-03-14T10:43:50;5.68;;;0.95;;
44270;SDS011;29963;44.594;11.368;2023-03-14T10:46:23;3.90;;;1.13;;
44270;SDS011;29963;44.594;11.368;2023-03-14T10:48:51;2.10;;;0.93;;
44270;SDS011;29963;44.594;11.368;2023-03-14T10:51:28;1.50;;;0.98;;
44270;SDS011;29963;44.594;11.368;2023-03-14T10:56:25;3.65;;;1.23;;
44270;SDS011;29963;44.594;11.368;2023-03-14T10:58:53;2.55;;;1.50;;
44270;SDS011;29963;44.594;11.368;2023-03-14T11:07:19;1.63;;;1.00;;
44270;SDS011;29963;44.594;11.368;2023-03-14T11:13:02;1.38;;;1.00;;
44270;SDS011;29963;44.594;11.368;2023-03-14T11:23:39;8.27;;;1.08;;
44270;SDS011;29963;44.594;11.368;2023-03-14T11:26:20;1.85;;;1.10;;
44270;SDS011;29963;44.594;11.368;2023-03-14T11:29:20;2.22;;;1.10;;
44270;SDS011;29963;44.594;11.368;2023-03-14T11:31:55;1.13;;;0.90;;
44270;SDS011;29963;44.594;11.368;2023-03-14T11:34:27;1.45;;;1.02;;
44270;SDS011;29963;44.594;11.368;2023-03-14T11:37:07;1.92;;;1.00;;
44270;SDS011;29963;44.594;11.368;2023-03-14T11:39:44;2.05;;;1.30;;
44270;SDS011;29963;44.594;11.368;2023-03-14T11:42:15;1.52;;;0.88;;
44270;SDS011;29963;44.594;11.368;2023-03-14T11:44:43;1.00;;;0.90;;
44270;SDS011;29963;44.594;11.368;2023-03-14T11:47:32;1.27;;;1.08;;
44270;SDS011;29963;44.594;11.368;2023-03-14T11:52:40;2.33;;;1.10;;
44270;SDS011;29963;44.594;11.368;2023-03-14T11:55:13;3.03;;;1.27;;
44270;SDS011;29963;44.594;11.368;2023-03-14T11:57:46;1.63;;;1.00;;
44270;SDS011;29963;44.594;11.368;2023-03-14T12:08:08;7.38;;;2.15;;
44270;SDS011;29963;44.594;11.368;2023-03-14T12:10:55;4.60;;;2.70;;
44270;SDS011;29963;44.594;11.368;2023-03-14T12:13:29;8.73;;;3.83;;
44270;SDS011;29963;44.594;11.368;2023-03-14T12:16:04;8.48;;;4.93;;
44270;SDS011;29963;44.594;11.368;2023-03-14T12:18:33;7.82;;;5.20;;
44270;SDS011;29963;44.594;11.368;2023-03-14T12:21:05;8.80;;;6.95;;
44270;SDS011;29963;44.594;11.368;2023-03-14T12:23:42;11.68;;;6.82;;
44270;SDS011;29963;44.594;11.368;2023-03-14T12:28:36;9.98;;;8.63;;
44270;SDS011;29963;44.594;11.368;2023-03-14T12:45:13;8.77;;;6.70;;
44270;SDS011;29963;44.594;11.368;2023-03-14T12:47:51;9.52;;;7.22;;
44270;SDS011;29963;44.594;11.368;2023-03-14T12:50:21;9.27;;;6.85;;
44270;SDS011;29963;44.594;11.368;2023-03-14T13:00:57;9.88;;;7.97;;
44270;SDS011;29963;44.594;11.368;2023-03-14T13:03:26;15.13;;;7.78;;
44270;SDS011;29963;44.594;11.368;2023-03-14T13:06:03;11.40;;;8.55;;
44270;SDS011;29963;44.594;11.368;2023-03-14T13:08:42;11.15;;;7.88;;
44270;SDS011;29963;44.594;11.368;2023-03-14T13:11:15;13.77;;;8.98;;
44270;SDS011;29963;44.594;11.368;2023-03-14T13:13:56;10.43;;;8.18;;
44270;SDS011;29963;44.594;11.368;2023-03-14T13:16:23;8.52;;;7.32;;
44270;SDS011;29963;44.594;11.368;2023-03-14T13:18:49;11.15;;;8.00;;
44270;SDS011;29963;44.594;11.368;2023-03-14T13:21:24;17.35;;;9.68;;
44270;SDS011;29963;44.594;11.368;2023-03-14T13:24:05;14.90;;;8.77;;
44270;SDS011;29963;44.594;11.368;2023-03-14T13:26:43;14.75;;;8.63;;
44270;SDS011;29963;44.594;11.368;2023-03-14T13:29:10;12.75;;;8.68;;
44270;SDS011;29963;44.594;11.368;2023-03-14T13:31:48;12.80;;;8.60;;
44270;SDS011;29963;44.594;11.368;2023-03-14T13:34:15;11.52;;;7.30;;
44270;SDS011;29963;44.594;11.368;2023-03-14T13:36:41;11.90;;;8.15;;
44270;SDS011;29963;44.594;11.368;2023-03-14T13:39:10;15.73;;;8.77;;
44270;SDS011;29963;44.594;11.368;2023-03-14T13:41:39;15.50;;;8.07;;
44270;SDS011;29963;44.594;11.368;2023-03-14T13:44:06;11.88;;;8.07;;
44270;SDS011;29963;44.594;11.368;2023-03-14T13:46:34;11.95;;;8.35;;
44270;SDS011;29963;44.594;11.368;2023-03-14T13:49:04;10.80;;;8.25;;
44270;SDS011;29963;44.594;11.368;2023-03-14T13:51:34;12.82;;;8.02;;
44270;SDS011;29963;44.594;11.368;2023-03-14T13:54:03;15.65;;;7.28;;
44270;SDS011;29963;44.594;11.368;2023-03-14T13:56:30;21.63;;;9.15;;
44270;SDS011;29963;44.594;11.368;2023-03-14T13:58:57;13.63;;;8.15;;
44270;SDS011;29963;44.594;11.368;2023-03-14T14:01:32;14.20;;;7.97;;
44270;SDS011;29963;44.594;11.368;2023-03-14T14:04:14;12.25;;;7.30;;
44270;SDS011;29963;44.594;11.368;2023-03-14T14:06:44;11.15;;;7.90;;
44270;SDS011;29963;44.594;11.368;2023-03-14T14:09:29;9.23;;;7.30;;
44270;SDS011;29963;44.594;11.368;2023-03-14T14:14:42;13.30;;;7.85;;
44270;SDS011;29963;44.594;11.368;2023-03-14T14:17:13;13.02;;;7.68;;
44270;SDS011;29963;44.594;11.368;2023-03-14T14:19:42;14.10;;;7.70;;
44270;SDS011;29963;44.594;11.368;2023-03-14T14:22:09;13.02;;;8.02;;
44270;SDS011;29963;44.594;11.368;2023-03-14T14:24:36;16.83;;;9.13;;
44270;SDS011;29963;44.594;11.368;2023-03-14T14:29:56;13.25;;;8.70;;
44270;SDS011;29963;44.594;11.368;2023-03-14T14:32:24;12.93;;;9.00;;
44270;SDS011;29963;44.594;11.368;2023-03-14T14:34:57;12.20;;;8.98;;
44270;SDS011;29963;44.594;11.368;2023-03-14T14:37:27;15.55;;;7.43;;
44270;SDS011;29963;44.594;11.368;2023-03-14T14:40:00;10.65;;;7.22;;
44270;SDS011;29963;44.594;11.368;2023-03-14T14:42:32;10.77;;;7.68;;
44270;SDS011;29963;44.594;11.368;2023-03-14T14:44:58;11.35;;;7.13;;
44270;SDS011;29963;44.594;11.368;2023-03-14T14:47:25;12.60;;;5.90;;
44270;SDS011;29963;44.594;11.368;2023-03-14T14:49:53;8.40;;;6.18;;
44270;SDS011;29963;44.594;11.368;2023-03-14T14:52:42;11.18;;;6.50;;
44270;SDS011;29963;44.594;11.368;2023-03-14T14:55:51;10.85;;;5.97;;
44270;SDS011;29963;44.594;11.368;2023-03-14T14:58:09;13.35;;;6.32;;
44270;SDS011;29963;44.594;11.368;2023-03-14T15:03:33;6.05;;;4.75;;
44270;SDS011;29963;44.594;11.368;2023-03-14T15:06:00;6.78;;;4.63;;
44270;SDS011;29963;44.594;11.368;2023-03-14T15:08:27;11.07;;;5.57;;
44270;SDS011;29963;44.594;11.368;2023-03-14T15:10:54;10.63;;;5.57;;
44270;SDS011;29963;44.594;11.368;2023-03-14T15:13:20;9.45;;;5.15;;
44270;SDS011;29963;44.594;11.368;2023-03-14T15:15:46;9.55;;;4.80;;
44270;SDS011;29963;44.594;11.368;2023-03-14T15:18:13;9.40;;;4.88;;
44270;SDS011;29963;44.594;11.368;2023-03-14T15:20:43;8.02;;;5.60;;
44270;SDS011;29963;44.594;11.368;2023-03-14T15:23:10;7.25;;;4.25;;
44270;SDS011;29963;44.594;11.368;2023-03-14T15:25:40;11.20;;;5.47;;
44270;SDS011;29963;44.594;11.368;2023-03-14T15:28:26;13.18;;;4.60;;
44270;SDS011;29963;44.594;11.368;2023-03-14T15:30:55;6.45;;;4.20;;
44270;SDS011;29963;44.594;11.368;2023-03-14T15:33:22;6.90;;;3.58;;
44270;SDS011;29963;44.594;11.368;2023-03-14T15:35:49;7.88;;;3.95;;
44270;SDS011;29963;44.594;11.368;2023-03-14T15:38:16;9.23;;;4.00;;
44270;SDS011;29963;44.594;11.368;2023-03-14T15:40:48;8.75;;;4.93;;
44270;SDS011;29963;44.594;11.368;2023-03-14T15:43:15;8.48;;;4.75;;
44270;SDS011;29963;44.594;11.368;2023-03-14T15:45:42;7.55;;;3.85;;
44270;SDS011;29963;44.594;11.368;2023-03-14T15:48:17;9.90;;;4.88;;
44270;SDS011;29963;44.594;11.368;2023-03-14T15:50:44;8.52;;;4.13;;
44270;SDS011;29963;44.594;11.368;2023-03-14T15:53:10;8.23;;;4.35;;
44270;SDS011;29963;44.594;11.368;2023-03-14T15:55:36;5.55;;;3.28;;
44270;SDS011;29963;44.594;11.368;2023-03-14T15:58:02;8.80;;;3.63;;
44270;SDS011;29963;44.594;11.368;2023-03-14T16:00:28;11.15;;;3.63;;
44270;SDS011;29963;44.594;11.368;2023-03-14T16:02:54;9.60;;;4.47;;
44270;SDS011;29963;44.594;11.368;2023-03-14T16:05:20;6.00;;;3.45;;